Terminal Aerodrome Forecast
Issued by NWS

Current Version | Previous Version | Text Only | Print | Product List | Glossary On
Versions: 1 2 3 4 5 6 7 8 9 10 11 12 13
000
FTUS46 KSEW 272300
TAFCLM
TAF
KCLM 272320Z 2800/2824 VRB04KT P6SM SCT040 BKN100
     FM280300 28008KT P6SM BKN040 OVC080
      TEMPO 2804/2808 -RA OVC030
     FM280800 28012KT P6SM -SHRA BKN020 BKN050
     FM281200 28010KT P6SM VCSH BKN030
     FM281800 28008KT P6SM BKN040=

USA.gov is the U.S. government's official web portal to all federal, state and local government web resources and services.